Hovedside
METAR-TAF:

METAR-TAF

Lufthavner :

Trollhättan-Vänersborg, Sverige

breddegrad: 58-19N, lengdegrad: 012-21E, høyde over havet: 41 m

Gjeldene værobservasjon

Denne rapporten ble laget for 13 minutter siden, klokken 14:50 UTC
Vind 4 kt fra Nord
Temperatur -1°C
Luftfuktighet 93%
Trykk 1012 hPa
Sikt: 8000 m
Spredte skyer i en høyde av 2300 ft

METAR: ESGT 211450Z 35004KT 8000 SCT023 M01/M02 Q1012

Tid: 16:03 (15:03 UTC)

Varsel

Denne rapporten ble laget for 33 minutter siden, klokken 14:30 UTC
Varsel gyldig fra 21. klokken 15 UTC til 21. klokken 18 UTC
Vind 2 kt fra skiftende retning
Sikt 10 km eller mer
Brutte skyer i en høyde av 900 ft
Sannsynlighet 40%
fra 21. klokken 15 UTC til 21. klokken 18 UTC
Spredte skyer i en høyde av 1200 ft

TAF: ESGT 211430Z 2115/2118 VRB02KT 9999 BKN009 PROB40 2115/2118 SCT012

Værobservasjoner og værvarsel for over 4000 flyplasser (METAR- og TAF-rapporter).

Tilgjengelige stasjoner er representert av de røde og gule prikkene på kartet.

Hold musepekeren over prikken for å se navnet på stasjonen.

Klikk så for å se værobservasjoner og -varsler.

For å forandre kartet kan du klikke på den grønne knappen med svart kryss for å zoome inn, på den grønne knappen med strek for å zoome ut, eller på de grønne pilene for å se tilstøtende kart.


METAR-TAF: